createdAt,value
2022-12-22T00:04:59.861Z,2.95
2022-12-22T00:10:20.124Z,6.70
2022-12-22T00:15:40.376Z,4.35
2022-12-22T00:21:00.593Z,2.33
2022-12-22T00:26:21.313Z,3.35
2022-12-22T00:31:42.330Z,2.35
2022-12-22T00:37:02.671Z,1.20
2022-12-22T00:42:23.059Z,2.35
2022-12-22T00:47:49.260Z,3.30
2022-12-22T00:53:09.515Z,1.60
2022-12-22T00:58:34.912Z,1.73
2022-12-22T01:03:55.077Z,1.70
2022-12-22T01:09:15.373Z,4.78
2022-12-22T01:14:35.556Z,2.53
2022-12-22T01:19:55.869Z,3.75
2022-12-22T01:25:16.089Z,3.35
2022-12-22T01:30:36.506Z,2.80
2022-12-22T01:35:56.687Z,2.75
2022-12-22T01:41:18.567Z,3.50
2022-12-22T01:46:42.611Z,4.25
2022-12-22T01:52:03.309Z,5.82
2022-12-22T01:57:23.712Z,2.50
2022-12-22T02:02:45.949Z,4.95
2022-12-22T02:08:29.353Z,3.05
2022-12-22T02:14:04.919Z,5.05
2022-12-22T02:19:42.277Z,6.32
2022-12-22T02:25:09.336Z,6.03
2022-12-22T02:30:31.140Z,6.80
2022-12-22T02:36:13.818Z,6.78
2022-12-22T02:41:46.292Z,8.57
2022-12-22T02:47:34.075Z,9.45
2022-12-22T02:52:57.858Z,7.65
2022-12-22T02:58:18.798Z,9.05
2022-12-22T03:03:39.159Z,11.30
2022-12-22T03:08:59.675Z,5.78
2022-12-22T03:14:19.766Z,8.77
2022-12-22T03:19:40.074Z,8.10
2022-12-22T03:25:00.259Z,9.35
2022-12-22T03:30:02.717Z,9.95
2022-12-22T03:35:04.770Z,11.57
2022-12-22T03:40:07.476Z,6.07
2022-12-22T03:45:28.721Z,8.90
2022-12-22T03:50:30.538Z,11.45
2022-12-22T03:55:32.291Z,10.13
2022-12-22T04:00:34.009Z,12.18
2022-12-22T04:05:35.869Z,15.98
2022-12-22T04:10:56.241Z,10.55
2022-12-22T04:15:58.019Z,8.82
2022-12-22T04:20:59.789Z,12.10
2022-12-22T04:26:01.567Z,11.52
2022-12-22T04:31:03.347Z,9.75
2022-12-22T04:36:05.820Z,14.35
2022-12-22T04:41:08.738Z,11.15
2022-12-22T04:46:10.692Z,10.23
2022-12-22T04:51:12.778Z,11.85
2022-12-22T04:56:14.666Z,11.90
2022-12-22T05:01:18.787Z,12.60
2022-12-22T05:06:20.666Z,13.45
2022-12-22T05:11:22.519Z,11.32
2022-12-22T05:16:24.359Z,12.13
2022-12-22T05:21:26.200Z,13.38
2022-12-22T05:26:28.078Z,11.02
2022-12-22T05:31:29.889Z,11.35
2022-12-22T05:36:31.681Z,13.15
2022-12-22T05:41:33.456Z,13.25
2022-12-22T05:46:35.257Z,9.65
2022-12-22T05:51:37.055Z,11.77
2022-12-22T05:56:38.835Z,6.10
2022-12-22T06:01:40.600Z,10.80
2022-12-22T06:06:42.391Z,4.03
2022-12-22T06:11:44.169Z,2.83
2022-12-22T06:16:46.142Z,3.45
2022-12-22T06:21:48.068Z,2.30
2022-12-22T06:26:49.976Z,3.15
2022-12-22T06:31:52.096Z,3.70
2022-12-22T06:36:53.945Z,3.13
2022-12-22T06:42:14.265Z,3.72
2022-12-22T06:47:16.671Z,2.70
2022-12-22T06:52:18.499Z,3.33
2022-12-22T06:57:20.271Z,4.88
2022-12-22T07:02:24.701Z,2.33
2022-12-22T07:07:26.798Z,4.68
2022-12-22T07:12:29.878Z,2.58
2022-12-22T07:17:31.702Z,3.17
2022-12-22T07:22:33.435Z,3.97
2022-12-22T07:27:35.213Z,3.75
2022-12-22T07:32:37.008Z,4.00
2022-12-22T07:37:38.870Z,3.85
2022-12-22T07:42:46.519Z,5.03
2022-12-22T07:47:48.727Z,4.43
2022-12-22T07:52:58.149Z,3.85
2022-12-22T07:58:00.143Z,4.82
2022-12-22T08:03:02.878Z,3.30
2022-12-22T08:08:05.100Z,2.47
2022-12-22T08:13:07.090Z,2.47
2022-12-22T08:18:09.119Z,2.42
2022-12-22T08:23:10.901Z,2.88
2022-12-22T08:28:15.552Z,2.47
2022-12-22T08:33:17.424Z,2.25
2022-12-22T08:38:19.232Z,1.63
2022-12-22T08:43:21.869Z,2.15
2022-12-22T08:48:23.683Z,1.88
2022-12-22T08:54:02.534Z,4.95
2022-12-22T08:58:47.376Z,1.50
2022-12-22T09:03:51.160Z,2.38
2022-12-22T09:09:01.330Z,5.25
2022-12-22T09:14:03.995Z,3.10
2022-12-22T09:19:06.921Z,1.60
2022-12-22T09:24:09.113Z,2.42
2022-12-22T09:29:11.301Z,1.63
2022-12-22T09:34:18.202Z,2.08
2022-12-22T09:39:26.744Z,1.42
2022-12-22T09:44:40.933Z,3.10
2022-12-22T09:49:42.879Z,2.60
2022-12-22T09:54:44.675Z,2.60
2022-12-22T09:59:46.599Z,1.35
2022-12-22T10:05:17.085Z,2.88
2022-12-22T10:10:27.753Z,1.70
2022-12-22T10:15:38.041Z,1.80
2022-12-22T10:20:42.029Z,1.70
2022-12-22T10:31:27.575Z,2.17
2022-12-22T10:36:33.014Z,0.63
2022-12-22T10:41:45.626Z,1.58
2022-12-22T10:46:49.836Z,1.98
2022-12-22T10:52:10.379Z,0.73
2022-12-22T10:57:15.221Z,1.73
2022-12-22T11:02:28.238Z,0.65
2022-12-22T11:07:33.250Z,1.23
2022-12-22T11:12:46.169Z,0.50
2022-12-22T11:18:32.768Z,0.98
2022-12-22T11:23:49.756Z,0.63
2022-12-22T11:29:10.405Z,1.02
2022-12-22T11:34:33.078Z,0.60
2022-12-22T11:39:42.135Z,0.88
2022-12-22T11:45:04.440Z,1.75
2022-12-22T11:50:58.794Z,2.58
2022-12-22T11:56:11.716Z,1.20
2022-12-22T12:01:48.731Z,1.05
2022-12-22T12:07:44.125Z,0.98
2022-12-22T12:12:54.060Z,1.05
2022-12-22T12:18:27.917Z,0.90
2022-12-22T12:23:59.931Z,5.72
2022-12-22T12:29:24.408Z,0.88
2022-12-22T12:34:31.284Z,0.30
2022-12-22T12:40:10.660Z,0.50
2022-12-22T12:45:35.954Z,2.33
2022-12-22T12:50:38.444Z,0.93
2022-12-22T12:55:52.740Z,4.07
2022-12-22T13:00:58.868Z,0.40
2022-12-22T13:06:03.695Z,2.05
2022-12-22T13:11:05.683Z,1.33
2022-12-22T13:16:07.556Z,1.20
2022-12-22T13:26:51.837Z,0.55
2022-12-22T13:32:01.533Z,1.13
2022-12-22T13:37:14.941Z,1.67
2022-12-22T13:42:17.023Z,0.65
2022-12-22T13:47:19.684Z,1.08
2022-12-22T13:52:21.611Z,2.22
2022-12-22T13:57:23.392Z,8.10
2022-12-22T14:02:25.288Z,3.90
2022-12-22T14:07:27.387Z,0.88
2022-12-22T14:12:35.403Z,0.82
2022-12-22T14:17:43.293Z,0.73
2022-12-22T14:22:59.131Z,1.23
2022-12-22T14:28:02.319Z,1.55
2022-12-22T14:33:28.034Z,4.72
2022-12-22T14:38:40.890Z,1.48
2022-12-22T14:43:42.750Z,1.45
2022-12-22T14:48:48.408Z,0.60
2022-12-22T14:53:57.109Z,1.52
2022-12-22T14:59:11.269Z,3.35
2022-12-22T15:04:20.658Z,1.25
2022-12-22T15:09:47.301Z,1.10
2022-12-22T15:14:49.274Z,0.95
2022-12-22T15:19:54.532Z,1.70
2022-12-22T15:24:58.946Z,1.08
2022-12-22T15:30:00.768Z,1.23
2022-12-22T15:35:03.480Z,0.73
2022-12-22T15:40:12.680Z,1.08
2022-12-22T15:45:15.450Z,0.88
2022-12-22T15:50:21.330Z,0.73
2022-12-22T15:55:24.848Z,1.08
2022-12-22T16:00:26.698Z,0.95
2022-12-22T16:05:28.502Z,1.15
2022-12-22T16:10:34.243Z,3.28
2022-12-22T16:15:36.366Z,0.60
2022-12-22T16:20:42.413Z,4.45
2022-12-22T16:25:46.560Z,2.10
2022-12-22T16:30:49.365Z,1.38
2022-12-22T16:35:51.245Z,1.02
2022-12-22T16:40:54.003Z,4.18
2022-12-22T16:45:57.737Z,2.58
2022-12-22T16:50:59.633Z,1.85
2022-12-22T16:56:01.410Z,3.40
2022-12-22T17:01:03.251Z,4.55
2022-12-22T17:06:05.890Z,5.35
2022-12-22T17:11:11.394Z,4.50
2022-12-22T17:16:23.217Z,8.65
2022-12-22T17:21:25.763Z,7.40
2022-12-22T17:26:27.642Z,6.93
2022-12-22T17:31:29.528Z,5.57
2022-12-22T17:36:37.169Z,5.97
2022-12-22T17:41:39.040Z,5.57
2022-12-22T17:46:40.900Z,6.75
2022-12-22T17:51:42.864Z,7.82
2022-12-22T17:56:44.778Z,6.03
2022-12-22T18:01:46.806Z,7.60
2022-12-22T18:06:48.860Z,6.93
2022-12-22T18:11:51.040Z,6.30
2022-12-22T18:16:52.992Z,7.32
2022-12-22T18:21:54.935Z,8.00
2022-12-22T18:26:56.793Z,9.85
2022-12-22T18:31:58.754Z,7.50
2022-12-22T18:37:02.203Z,9.75
2022-12-22T18:42:15.612Z,7.03
2022-12-22T18:47:17.614Z,11.35
2022-12-22T18:52:22.420Z,8.15
2022-12-22T18:57:24.244Z,9.20
2022-12-22T19:02:29.031Z,6.97
2022-12-22T19:07:31.024Z,7.88
2022-12-22T19:12:32.886Z,8.40
2022-12-22T19:17:34.711Z,6.72
2022-12-22T19:22:36.522Z,8.52
2022-12-22T19:27:38.346Z,5.55
2022-12-22T19:32:46.126Z,7.05
2022-12-22T19:37:50.325Z,5.40
2022-12-22T19:42:56.149Z,6.40
2022-12-22T19:47:58.565Z,5.40
2022-12-22T19:53:00.920Z,4.65
2022-12-22T19:58:03.039Z,5.35
2022-12-22T20:03:06.300Z,6.80
2022-12-22T20:08:08.328Z,7.60
2022-12-22T20:13:19.528Z,9.40
2022-12-22T20:18:24.237Z,6.70
2022-12-22T20:23:28.667Z,5.88
2022-12-22T20:28:34.234Z,7.82
2022-12-22T20:33:36.208Z,7.82
2022-12-22T20:38:41.402Z,10.88
2022-12-22T20:43:43.293Z,8.88
2022-12-22T20:48:49.262Z,9.82
2022-12-22T20:53:52.082Z,7.40
2022-12-22T20:58:54.881Z,8.13
2022-12-22T21:03:56.731Z,8.63
2022-12-22T21:08:59.748Z,12.23
2022-12-22T21:14:01.617Z,10.75
2022-12-22T21:19:04.267Z,7.38
2022-12-22T21:24:06.370Z,6.93
2022-12-22T21:29:13.999Z,6.18
2022-12-22T21:34:16.222Z,6.68
2022-12-22T21:39:21.243Z,3.80
2022-12-22T21:44:23.069Z,4.70
2022-12-22T21:49:31.207Z,5.53
2022-12-22T21:54:33.239Z,5.22
2022-12-22T21:59:35.376Z,3.25
2022-12-22T22:04:37.157Z,3.92
2022-12-22T22:09:39.066Z,4.85
2022-12-22T22:14:40.940Z,3.75
2022-12-22T22:19:42.836Z,3.75
2022-12-22T22:24:44.821Z,3.80
2022-12-22T22:29:46.703Z,4.30
2022-12-22T22:34:48.618Z,4.60
2022-12-22T22:39:50.913Z,5.82
2022-12-22T22:44:52.735Z,3.15
2022-12-22T22:49:54.772Z,5.43
2022-12-22T22:54:56.579Z,5.18
2022-12-22T22:59:58.518Z,4.18
2022-12-22T23:05:00.356Z,4.32
2022-12-22T23:10:03.383Z,4.05
2022-12-22T23:15:06.835Z,5.07
2022-12-22T23:20:09.068Z,4.88
2022-12-22T23:25:10.822Z,4.35
2022-12-22T23:30:13.154Z,4.68
2022-12-22T23:35:15.264Z,7.75
2022-12-22T23:40:50.358Z,4.63
2022-12-22T23:45:40.109Z,4.70
2022-12-22T23:50:45.921Z,5.25
2022-12-22T23:55:48.459Z,2.55
